Terminal Aerodrome Forecast
Issued by NWS Jackson, MS

Home | Current Version | Previous Version | Text Only | Print | Product List | Glossary On
Versions: 1 2 3 4 5 6 7 8 9 10 11 12 13 14 15 16
776
FTUS44 KJAN 251725
TAFGWO
TAF
KGWO 251725Z 2518/2618 35005KT P6SM SCT120 BKN250
     FM260100 14004KT P6SM VCSH BKN050
     FM260500 19009KT 5SM -SHRA BKN015
     FM261000 31010G20KT P6SM VCSH BKN008 OVC012=

USA.gov is the U.S. government's official web portal to all federal, state and local government web resources and services.